createdAt,value
2022-12-01T16:08:16.739Z,1020.97
2022-12-01T16:09:01.254Z,1020.95
2022-12-01T16:10:01.224Z,1020.95
2022-12-01T16:11:01.144Z,1020.93
2022-12-01T16:12:01.124Z,1020.97
2022-12-01T16:13:01.100Z,1020.95
2022-12-01T16:14:01.072Z,1021.00
2022-12-01T16:15:01.042Z,1020.96
2022-12-01T16:16:01.022Z,1020.96
2022-12-01T16:17:01.058Z,1020.96
2022-12-01T16:18:00.967Z,1020.97
2022-12-01T16:19:00.940Z,1020.98
2022-12-01T16:20:00.910Z,1021.00
2022-12-01T16:21:00.881Z,1020.96
2022-12-01T16:22:00.865Z,1020.98
2022-12-01T16:23:00.825Z,1020.99
2022-12-01T16:24:00.828Z,1020.98
2022-12-01T16:25:00.774Z,1020.98
2022-12-01T16:26:02.236Z,1020.96
2022-12-01T16:27:00.716Z,1020.97
2022-12-01T16:28:00.693Z,1020.97
2022-12-01T16:29:00.671Z,1020.97
2022-12-01T16:30:00.728Z,1020.97
2022-12-01T16:31:00.694Z,1020.97
2022-12-01T16:32:19.784Z,1020.98
2022-12-01T16:33:00.561Z,1021.00
2022-12-01T16:34:04.055Z,1021.02
2022-12-01T16:35:00.871Z,1021.05
2022-12-01T16:36:00.484Z,1021.05
2022-12-01T16:37:00.446Z,1021.03
2022-12-01T16:38:00.432Z,1021.05
2022-12-01T16:39:00.394Z,1021.06
2022-12-01T16:40:00.544Z,1021.06
2022-12-01T16:41:00.341Z,1021.03
2022-12-01T16:42:00.433Z,1021.03
2022-12-01T16:43:00.287Z,1021.02
2022-12-01T16:44:27.027Z,1021.06
2022-12-01T16:45:00.232Z,1021.04
2022-12-01T16:46:00.351Z,1021.01
2022-12-01T16:47:00.176Z,1021.02
2022-12-01T16:48:03.551Z,1021.03
2022-12-01T16:49:00.129Z,1021.01
2022-12-01T16:50:00.222Z,1021.03
2022-12-01T16:51:00.077Z,1021.02
2022-12-01T16:52:11.091Z,1021.07
2022-12-01T16:53:00.022Z,1021.09
2022-12-01T16:54:00.000Z,1021.14
2022-12-01T16:54:59.970Z,1021.11
2022-12-01T16:55:59.966Z,1021.09
2022-12-01T16:56:59.916Z,1021.12
2022-12-01T16:57:59.887Z,1021.10
2022-12-01T16:58:59.859Z,1021.12
2022-12-01T16:59:59.900Z,1021.11
2022-12-01T17:00:59.904Z,1021.14
2022-12-01T17:01:59.779Z,1021.09
2022-12-01T17:02:59.847Z,1021.14
2022-12-01T17:04:03.453Z,1021.14
2022-12-01T17:04:59.699Z,1021.16
2022-12-01T17:05:59.675Z,1021.13
2022-12-01T17:06:59.640Z,1021.15
2022-12-01T17:07:59.675Z,1021.16
2022-12-01T17:08:59.591Z,1021.17
2022-12-01T17:09:59.571Z,1021.13
2022-12-01T17:10:59.542Z,1021.12
2022-12-01T17:11:59.545Z,1021.11
2022-12-01T17:12:59.479Z,1021.15
2022-12-01T17:13:59.456Z,1021.15
2022-12-01T17:14:59.430Z,1021.13
2022-12-01T17:15:59.486Z,1021.16
2022-12-01T17:16:59.373Z,1021.16
2022-12-01T17:17:59.350Z,1021.18
2022-12-01T17:18:59.322Z,1021.19
2022-12-01T17:19:59.296Z,1021.22
2022-12-01T17:20:59.267Z,1021.26
2022-12-01T17:21:59.239Z,1021.23
2022-12-01T17:22:59.219Z,1021.19
2022-12-01T17:23:59.191Z,1021.25
2022-12-01T17:24:59.157Z,1021.20
2022-12-01T17:25:59.134Z,1021.23
2022-12-01T17:26:59.101Z,1021.25
2022-12-01T17:27:59.096Z,1021.27
2022-12-01T17:28:59.055Z,1021.27
2022-12-01T17:29:59.036Z,1021.24
2022-12-01T17:30:59.020Z,1021.31
2022-12-01T17:31:58.972Z,1021.30
2022-12-01T17:32:58.945Z,1021.33
2022-12-01T17:33:58.911Z,1021.32
2022-12-01T17:34:58.892Z,1021.30
2022-12-01T17:35:58.862Z,1021.36
2022-12-01T17:36:58.833Z,1021.36
2022-12-01T17:37:58.814Z,1021.35
2022-12-01T17:38:58.905Z,1021.35
2022-12-01T17:39:58.755Z,1021.37
2022-12-01T17:40:58.725Z,1021.40
2022-12-01T17:41:58.700Z,1021.40
2022-12-01T17:42:58.674Z,1021.43
2022-12-01T17:43:58.658Z,1021.48
2022-12-01T17:44:58.619Z,1021.44
2022-12-01T17:45:58.647Z,1021.42
2022-12-01T17:46:58.564Z,1021.39
2022-12-01T17:47:58.540Z,1021.43
2022-12-01T17:48:58.515Z,1021.45
2022-12-01T17:49:58.491Z,1021.44
2022-12-01T17:50:58.449Z,1021.43
2022-12-01T17:51:58.447Z,1021.41
2022-12-01T17:52:58.398Z,1021.44
2022-12-01T17:53:58.375Z,1021.42
2022-12-01T17:54:58.355Z,1021.43
2022-12-01T17:55:58.320Z,1021.41
2022-12-01T17:56:58.458Z,1021.36
2022-12-01T17:57:58.277Z,1021.41
2022-12-01T17:58:58.241Z,1021.37
2022-12-01T17:59:58.237Z,1021.39
2022-12-01T18:00:58.182Z,1021.43
2022-12-01T18:01:58.272Z,1021.40
2022-12-01T18:02:58.179Z,1021.45
2022-12-01T18:03:58.110Z,1021.44
2022-12-01T18:04:58.130Z,1021.40
2022-12-01T18:05:58.051Z,1021.43
2022-12-01T18:06:58.021Z,1021.47
2022-12-01T18:07:58.038Z,1021.43
2022-12-01T18:08:57.972Z,1021.42
2022-12-01T18:09:57.941Z,1021.45
2022-12-01T18:10:57.910Z,1021.44
2022-12-01T18:11:57.888Z,1021.44
2022-12-01T18:12:57.856Z,1021.44
2022-12-01T18:13:57.832Z,1021.43
2022-12-01T18:14:57.808Z,1021.43
2022-12-01T18:15:57.866Z,1021.44
2022-12-01T18:16:57.750Z,1021.44
2022-12-01T18:17:57.724Z,1021.43
2022-12-01T18:18:57.702Z,1021.43
2022-12-01T18:19:57.672Z,1021.48
2022-12-01T18:20:57.644Z,1021.46
2022-12-01T18:21:57.617Z,1021.49
2022-12-01T18:22:57.594Z,1021.48
2022-12-01T18:23:57.564Z,1021.49
2022-12-01T18:24:57.544Z,1021.46
2022-12-01T18:25:57.510Z,1021.45
2022-12-01T18:26:57.477Z,1021.46
2022-12-01T18:27:57.459Z,1021.48
2022-12-01T18:28:57.430Z,1021.44
2022-12-01T18:29:57.400Z,1021.44
2022-12-01T18:30:57.380Z,1021.44
2022-12-01T18:31:57.372Z,1021.48
2022-12-01T18:32:57.318Z,1021.48
2022-12-01T18:33:57.296Z,1021.49
2022-12-01T18:34:57.260Z,1021.48
2022-12-01T18:35:57.242Z,1021.46
2022-12-01T18:36:57.213Z,1021.45
2022-12-01T18:37:57.184Z,1021.49
2022-12-01T18:38:57.157Z,1021.48
2022-12-01T18:39:57.128Z,1021.44
2022-12-01T18:40:57.102Z,1021.48
2022-12-01T18:41:57.075Z,1021.49
2022-12-01T18:42:57.048Z,1021.48
2022-12-01T18:43:57.023Z,1021.48
2022-12-01T18:44:56.993Z,1021.47
2022-12-01T18:45:56.967Z,1021.46
2022-12-01T18:46:57.009Z,1021.43
2022-12-01T18:47:56.940Z,1021.45
2022-12-01T18:48:56.885Z,1021.43
2022-12-01T18:49:56.862Z,1021.48
2022-12-01T18:50:59.598Z,1021.45
2022-12-01T18:51:56.803Z,1021.46
2022-12-01T18:52:56.774Z,1021.46
2022-12-01T18:53:56.756Z,1021.49
2022-12-01T18:54:56.726Z,1021.47
2022-12-01T18:55:56.698Z,1021.47
2022-12-01T18:56:56.667Z,1021.47
2022-12-01T18:57:56.645Z,1021.45
2022-12-01T18:58:56.613Z,1021.46
2022-12-01T18:59:56.590Z,1021.45
2022-12-01T19:00:56.758Z,1021.42
2022-12-01T19:01:56.646Z,1021.44
2022-12-01T19:02:56.504Z,1021.42
2022-12-01T19:03:56.500Z,1021.36
2022-12-01T19:04:56.447Z,1021.41
2022-12-01T19:05:56.427Z,1021.36
2022-12-01T19:06:56.398Z,1021.35
2022-12-01T19:07:56.402Z,1021.35
2022-12-01T19:08:56.339Z,1021.34
2022-12-01T19:09:56.313Z,1021.33
2022-12-01T19:10:56.286Z,1021.32
2022-12-01T19:11:56.263Z,1021.37
2022-12-01T19:12:56.236Z,1021.36
2022-12-01T19:13:56.207Z,1021.38
2022-12-01T19:14:56.183Z,1021.35
2022-12-01T19:15:56.179Z,1021.36
2022-12-01T19:16:56.123Z,1021.35
2022-12-01T19:17:56.105Z,1021.38
2022-12-01T19:18:56.072Z,1021.34
2022-12-01T19:19:56.066Z,1021.37
2022-12-01T19:20:56.016Z,1021.36
2022-12-01T19:21:55.992Z,1021.36
2022-12-01T19:22:55.967Z,1021.35
2022-12-01T19:23:55.936Z,1021.33
2022-12-01T19:24:56.485Z,1021.36
2022-12-01T19:25:55.880Z,1021.29
2022-12-01T19:26:55.858Z,1021.35
2022-12-01T19:27:55.827Z,1021.34
2022-12-01T19:28:55.797Z,1021.36
2022-12-01T19:29:55.777Z,1021.36
2022-12-01T19:30:55.746Z,1021.36
2022-12-01T19:31:55.788Z,1021.37
2022-12-01T19:32:55.687Z,1021.37
2022-12-01T19:33:55.673Z,1021.33
2022-12-01T19:34:55.645Z,1021.34
2022-12-01T19:35:55.633Z,1021.35
2022-12-01T19:36:55.582Z,1021.30
2022-12-01T19:37:55.552Z,1021.30
2022-12-01T19:38:55.531Z,1021.29
2022-12-01T19:39:55.499Z,1021.29
2022-12-01T19:40:55.479Z,1021.28
2022-12-01T19:41:55.445Z,1021.30
2022-12-01T19:42:55.418Z,1021.30
2022-12-01T19:43:55.393Z,1021.32
2022-12-01T19:44:55.362Z,1021.27
2022-12-01T19:45:55.428Z,1021.32
2022-12-01T19:46:55.311Z,1021.31
2022-12-01T19:47:55.284Z,1021.28
2022-12-01T19:48:55.257Z,1021.33
2022-12-01T19:49:55.248Z,1021.30
2022-12-01T19:50:55.214Z,1021.31
2022-12-01T19:51:55.195Z,1021.33
2022-12-01T19:52:55.152Z,1021.31
2022-12-01T19:53:55.122Z,1021.33
2022-12-01T19:54:55.099Z,1021.34
2022-12-01T19:55:55.086Z,1021.35
2022-12-01T19:56:55.038Z,1021.36
2022-12-01T19:57:55.010Z,1021.33
2022-12-01T19:58:54.982Z,1021.34
2022-12-01T19:59:54.958Z,1021.35
2022-12-01T20:00:54.949Z,1021.36
2022-12-01T20:01:54.947Z,1021.35
2022-12-01T20:02:54.877Z,1021.37
2022-12-01T20:03:54.858Z,1021.34
2022-12-01T20:04:54.827Z,1021.34
2022-12-01T20:05:54.795Z,1021.36
2022-12-01T20:06:54.768Z,1021.36
2022-12-01T20:07:54.844Z,1021.36
2022-12-01T20:08:54.712Z,1021.32
2022-12-01T20:09:54.685Z,1021.35
2022-12-01T20:10:54.655Z,1021.31
2022-12-01T20:11:54.629Z,1021.28
2022-12-01T20:12:54.675Z,1021.26
2022-12-01T20:13:54.576Z,1021.33
2022-12-01T20:14:54.549Z,1021.33
2022-12-01T20:15:54.520Z,1021.32
2022-12-01T20:16:54.544Z,1021.31
2022-12-01T20:17:54.467Z,1021.31
2022-12-01T20:18:54.441Z,1021.27
2022-12-01T20:19:54.413Z,1021.28
2022-12-01T20:20:54.381Z,1021.25
2022-12-01T20:21:54.358Z,1021.30
2022-12-01T20:22:54.330Z,1021.26
2022-12-01T20:23:54.321Z,1021.31
2022-12-01T20:24:54.272Z,1021.31
2022-12-01T20:25:54.240Z,1021.24
2022-12-01T20:26:54.221Z,1021.25
2022-12-01T20:27:54.189Z,1021.27
2022-12-01T20:28:54.165Z,1021.28
2022-12-01T20:29:54.137Z,1021.28
2022-12-01T20:30:54.112Z,1021.29
2022-12-01T20:31:54.201Z,1021.28
2022-12-01T20:32:54.060Z,1021.30
2022-12-01T20:33:54.021Z,1021.27
2022-12-01T20:34:54.001Z,1021.28
2022-12-01T20:35:53.972Z,1021.33
2022-12-01T20:36:54.066Z,1021.31
2022-12-01T20:37:53.913Z,1021.33
2022-12-01T20:38:53.891Z,1021.32
2022-12-01T20:39:53.882Z,1021.37
2022-12-01T20:40:53.840Z,1021.37
2022-12-01T20:41:53.918Z,1021.34
2022-12-01T20:42:53.787Z,1021.36
2022-12-01T20:43:53.761Z,1021.36
2022-12-01T20:44:53.738Z,1021.35
2022-12-01T20:45:53.739Z,1021.39
2022-12-01T20:46:53.676Z,1021.33
2022-12-01T20:47:53.643Z,1021.33
2022-12-01T20:48:53.618Z,1021.36
2022-12-01T20:49:58.128Z,1021.36
2022-12-01T20:50:53.560Z,1021.32
2022-12-01T20:51:53.534Z,1021.31
2022-12-01T20:52:53.507Z,1021.33
2022-12-01T20:54:19.846Z,1021.30
2022-12-01T20:54:53.456Z,1021.31
2022-12-01T20:55:53.442Z,1021.29
2022-12-01T20:56:53.406Z,1021.29
2022-12-01T20:57:53.369Z,1021.31
2022-12-01T20:58:53.344Z,1021.32
2022-12-01T20:59:53.317Z,1021.35
2022-12-01T21:00:53.324Z,1021.32
2022-12-01T21:01:53.455Z,1021.36
2022-12-01T21:02:53.314Z,1021.33
2022-12-01T21:03:53.205Z,1021.33
2022-12-01T21:04:57.780Z,1021.33
2022-12-01T21:05:53.151Z,1021.34
2022-12-01T21:06:53.123Z,1021.30
2022-12-01T21:07:53.189Z,1021.30
2022-12-01T21:08:53.071Z,1021.29
2022-12-01T21:09:53.042Z,1021.29
2022-12-01T21:10:53.015Z,1021.29
2022-12-01T21:11:53.011Z,1021.27
2022-12-01T21:12:52.959Z,1021.26
2022-12-01T21:13:52.926Z,1021.25
2022-12-01T21:14:53.204Z,1021.26
2022-12-01T21:15:52.872Z,1021.25
2022-12-01T21:16:52.910Z,1021.22
2022-12-01T21:17:52.816Z,1021.27
2022-12-01T21:18:52.799Z,1021.25
2022-12-01T21:19:52.772Z,1021.26
2022-12-01T21:20:52.737Z,1021.26
2022-12-01T21:21:52.708Z,1021.22
2022-12-01T21:22:52.685Z,1021.22
2022-12-01T21:23:52.668Z,1021.22
2022-12-01T21:24:52.997Z,1021.23
2022-12-01T21:25:52.597Z,1021.22
2022-12-01T21:26:52.575Z,1021.24
2022-12-01T21:27:52.564Z,1021.21
2022-12-01T21:28:52.521Z,1021.21
2022-12-01T21:29:52.487Z,1021.20
2022-12-01T21:30:52.522Z,1021.17
2022-12-01T21:31:52.438Z,1021.13
2022-12-01T21:32:52.408Z,1021.14
2022-12-01T21:33:52.381Z,1021.13
2022-12-01T21:34:52.702Z,1021.11
2022-12-01T21:35:52.328Z,1021.11
2022-12-01T21:36:52.503Z,1021.12
2022-12-01T21:37:52.266Z,1021.10
2022-12-01T21:38:52.251Z,1021.10
2022-12-01T21:39:52.218Z,1021.09
2022-12-01T21:40:52.190Z,1021.08
2022-12-01T21:41:52.160Z,1021.08
2022-12-01T21:42:52.138Z,1021.05
2022-12-01T21:43:52.142Z,1021.08
2022-12-01T21:44:52.500Z,1021.01
2022-12-01T21:45:52.106Z,1021.02
2022-12-01T21:46:52.025Z,1020.99
2022-12-01T21:47:51.991Z,1021.02
2022-12-01T21:48:51.969Z,1020.98
2022-12-01T21:49:51.941Z,1021.01
2022-12-01T21:50:54.126Z,1020.97
2022-12-01T21:51:51.886Z,1021.02
2022-12-01T21:52:51.861Z,1021.04
2022-12-01T21:53:51.828Z,1020.97
2022-12-01T21:54:51.995Z,1021.01
2022-12-01T21:55:51.777Z,1021.01
2022-12-01T21:56:51.752Z,1021.01
2022-12-01T21:57:51.721Z,1021.00
2022-12-01T21:58:51.700Z,1020.95
2022-12-01T21:59:51.691Z,1020.99
2022-12-01T22:00:51.641Z,1020.95
2022-12-01T22:01:51.796Z,1020.98
2022-12-01T22:02:51.630Z,1020.99
2022-12-01T22:03:51.560Z,1020.96
2022-12-01T22:04:51.797Z,1020.96
2022-12-01T22:06:21.243Z,1020.97
2022-12-01T22:06:51.482Z,1020.94
2022-12-01T22:07:51.505Z,1020.95
2022-12-01T22:08:51.430Z,1020.94
2022-12-01T22:09:51.394Z,1020.94
2022-12-01T22:10:51.376Z,1020.90
2022-12-01T22:11:51.343Z,1020.90
2022-12-01T22:12:51.318Z,1020.91
2022-12-01T22:13:51.283Z,1020.84
2022-12-01T22:14:51.661Z,1020.90
2022-12-01T22:15:51.356Z,1020.87
2022-12-01T22:16:51.205Z,1020.90
2022-12-01T22:17:51.185Z,1020.88
2022-12-01T22:18:51.152Z,1020.90
2022-12-01T22:19:51.119Z,1020.88
2022-12-01T22:20:51.096Z,1020.88
2022-12-01T22:21:51.064Z,1020.88
2022-12-01T22:22:51.042Z,1020.89
2022-12-01T22:23:51.054Z,1020.89
2022-12-01T22:24:51.393Z,1020.92
2022-12-01T22:25:50.952Z,1020.89
2022-12-01T22:26:50.932Z,1020.85
2022-12-01T22:27:50.896Z,1020.83
2022-12-01T22:28:50.874Z,1020.80
2022-12-01T22:29:50.844Z,1020.81
2022-12-01T22:30:50.866Z,1020.81
2022-12-01T22:31:50.812Z,1020.79
2022-12-01T22:32:50.767Z,1020.76
2022-12-01T22:33:50.732Z,1020.78
2022-12-01T22:34:50.944Z,1020.76
2022-12-01T22:35:50.678Z,1020.78
2022-12-01T22:36:50.658Z,1020.77
2022-12-01T22:37:50.625Z,1020.76
2022-12-01T22:38:50.599Z,1020.75
2022-12-01T22:39:50.569Z,1020.72
2022-12-01T22:40:50.545Z,1020.72
2022-12-01T22:41:50.514Z,1020.71
2022-12-01T22:42:50.487Z,1020.70
2022-12-01T22:43:50.456Z,1020.67
2022-12-01T22:44:50.874Z,1020.68
2022-12-01T22:45:50.407Z,1020.71
2022-12-01T22:46:50.445Z,1020.68
2022-12-01T22:47:50.370Z,1020.67
2022-12-01T22:48:50.342Z,1020.68
2022-12-01T22:49:50.298Z,1020.70
2022-12-01T22:50:52.078Z,1020.70
2022-12-01T22:51:50.250Z,1020.68
2022-12-01T22:52:50.216Z,1020.68
2022-12-01T22:53:50.187Z,1020.67
2022-12-01T22:54:50.500Z,1020.69
2022-12-01T22:55:50.136Z,1020.69
2022-12-01T22:56:50.107Z,1020.68
2022-12-01T22:57:50.088Z,1020.67
2022-12-01T22:58:50.053Z,1020.68
2022-12-01T22:59:50.022Z,1020.61
2022-12-01T23:00:50.061Z,1020.61
2022-12-01T23:01:50.061Z,1020.59
2022-12-01T23:02:50.010Z,1020.62
2022-12-01T23:03:49.939Z,1020.62
2022-12-01T23:04:50.177Z,1020.63
2022-12-01T23:05:49.961Z,1020.62
2022-12-01T23:06:49.843Z,1020.61
2022-12-01T23:07:49.854Z,1020.59
2022-12-01T23:08:49.782Z,1020.63
2022-12-01T23:09:49.746Z,1020.65
2022-12-01T23:10:49.722Z,1020.64
2022-12-01T23:11:49.688Z,1020.64
2022-12-01T23:12:49.675Z,1020.65
2022-12-01T23:13:49.637Z,1020.65
2022-12-01T23:14:49.968Z,1020.64
2022-12-01T23:15:49.597Z,1020.64
2022-12-01T23:16:49.558Z,1020.61
2022-12-01T23:17:49.525Z,1020.62
2022-12-01T23:18:49.501Z,1020.58
2022-12-01T23:19:49.490Z,1020.59
2022-12-01T23:20:49.448Z,1020.55
2022-12-01T23:21:49.416Z,1020.56
2022-12-01T23:22:49.391Z,1020.55
2022-12-01T23:23:49.363Z,1020.56
2022-12-01T23:24:49.548Z,1020.55
2022-12-01T23:25:49.307Z,1020.52
2022-12-01T23:26:49.283Z,1020.56
2022-12-01T23:27:49.252Z,1020.52
2022-12-01T23:28:49.232Z,1020.52
2022-12-01T23:29:49.198Z,1020.50
2022-12-01T23:30:49.347Z,1020.51
2022-12-01T23:31:49.183Z,1020.47
2022-12-01T23:32:49.120Z,1020.47
2022-12-01T23:33:49.088Z,1020.43
2022-12-01T23:34:49.571Z,1020.43
2022-12-01T23:35:49.057Z,1020.42
2022-12-01T23:36:49.014Z,1020.41
2022-12-01T23:37:48.983Z,1020.41
2022-12-01T23:38:48.949Z,1020.40
2022-12-01T23:39:48.926Z,1020.38
2022-12-01T23:40:48.897Z,1020.43
2022-12-01T23:41:48.868Z,1020.40
2022-12-01T23:42:48.841Z,1020.38
2022-12-01T23:43:48.817Z,1020.37
2022-12-01T23:44:49.199Z,1020.33
2022-12-01T23:45:48.767Z,1020.28
2022-12-01T23:46:48.845Z,1020.32
2022-12-01T23:47:48.703Z,1020.29
2022-12-01T23:48:48.687Z,1020.27
2022-12-01T23:49:48.648Z,1020.27
2022-12-01T23:50:48.623Z,1020.27
2022-12-01T23:51:48.613Z,1020.24
2022-12-01T23:52:48.570Z,1020.23
2022-12-01T23:53:48.537Z,1020.25
2022-12-01T23:54:48.988Z,1020.23
2022-12-01T23:55:48.484Z,1020.26
2022-12-01T23:56:48.460Z,1020.24
2022-12-01T23:57:48.427Z,1020.24
2022-12-01T23:58:48.398Z,1020.26
2022-12-01T23:59:48.373Z,1020.26
